LGL15 LSGG-EBLG
Flight info
| Callsign | LGL15 |
|---|---|
| Flight time | 0h 59m |
| Altitude | 30000 |
| Route | ARBOS DCT PENDU DCT ROUSY/N0430F290 M624 DIK/N0395F240 N852 GESLO |
| Aircraft | A321/M-SDE3FGHIRWY/LB1 |
Departure
| Time | 2026-05-06 16:59 |
|---|---|
| Airport | Geneva International Airport (LSGG) |
Arrival
| Time | 2026-05-06 17:58 |
|---|---|
| Airport | Liège Airport (EBLG) |
| Time | Latitude | Longitude | Altitude | Speed | Heading |
|---|---|---|---|---|---|
| 2026-05-06 16:31 | 46.22797 | 6.09977 | 1403 ft | 0 kts | 136° |
| 2026-05-06 16:45 | 46.22807 | 6.09965 | 1404 ft | 2 kts | 148° |
| 2026-05-06 16:45 | 46.22819 | 6.09953 | 1404 ft | 2 kts | 142° |
| 2026-05-06 16:45 | 46.22830 | 6.09942 | 1404 ft | 2 kts | 143° |
| 2026-05-06 16:46 | 46.22840 | 6.09931 | 1404 ft | 2 kts | 143° |
| 2026-05-06 16:46 | 46.22851 | 6.09919 | 1404 ft | 2 kts | 143° |
| 2026-05-06 16:46 | 46.22862 | 6.09908 | 1404 ft | 2 kts | 143° |
| 2026-05-06 16:46 | 46.22871 | 6.09898 | 1405 ft | 0 kts | 143° |
| 2026-05-06 16:47 | 46.22881 | 6.09876 | 1405 ft | 3 kts | 79° |
| 2026-05-06 16:47 | 46.22877 | 6.09865 | 1405 ft | 0 kts | 47° |
| 2026-05-06 16:47 | 46.22872 | 6.09858 | 1405 ft | 1 kts | 43° |
| 2026-05-06 16:47 | 46.22871 | 6.09856 | 1405 ft | 0 kts | 44° |
| 2026-05-06 16:50 | 46.22875 | 6.09861 | 1405 ft | 1 kts | 44° |
| 2026-05-06 16:50 | 46.22885 | 6.09876 | 1405 ft | 2 kts | 45° |
| 2026-05-06 16:50 | 46.22902 | 6.09901 | 1404 ft | 5 kts | 45° |
| 2026-05-06 16:50 | 46.22928 | 6.09939 | 1404 ft | 7 kts | 45° |
| 2026-05-06 16:51 | 46.22962 | 6.09990 | 1403 ft | 9 kts | 46° |
| 2026-05-06 16:51 | 46.23008 | 6.10057 | 1401 ft | 11 kts | 45° |
| 2026-05-06 16:51 | 46.23062 | 6.10136 | 1400 ft | 13 kts | 45° |
| 2026-05-06 16:51 | 46.23123 | 6.10226 | 1399 ft | 14 kts | 46° |
| 2026-05-06 16:52 | 46.23190 | 6.10331 | 1396 ft | 16 kts | 48° |
| 2026-05-06 16:52 | 46.23262 | 6.10444 | 1394 ft | 18 kts | 45° |
| 2026-05-06 16:52 | 46.23343 | 6.10559 | 1392 ft | 19 kts | 43° |
| 2026-05-06 16:52 | 46.23431 | 6.10680 | 1390 ft | 20 kts | 43° |
| 2026-05-06 16:53 | 46.23520 | 6.10808 | 1388 ft | 20 kts | 45° |
| 2026-05-06 16:53 | 46.23612 | 6.10939 | 1386 ft | 21 kts | 46° |
| 2026-05-06 16:53 | 46.23706 | 6.11080 | 1384 ft | 21 kts | 45° |
| 2026-05-06 16:53 | 46.23806 | 6.11229 | 1382 ft | 21 kts | 46° |
| 2026-05-06 16:54 | 46.23904 | 6.11371 | 1379 ft | 22 kts | 46° |
| 2026-05-06 16:54 | 46.24004 | 6.11518 | 1377 ft | 22 kts | 45° |
| 2026-05-06 16:54 | 46.24103 | 6.11664 | 1375 ft | 23 kts | 45° |
| 2026-05-06 16:54 | 46.24205 | 6.11810 | 1372 ft | 23 kts | 45° |
| 2026-05-06 16:55 | 46.24308 | 6.11958 | 1371 ft | 23 kts | 45° |
| 2026-05-06 16:55 | 46.24405 | 6.12103 | 1370 ft | 22 kts | 46° |
| 2026-05-06 16:55 | 46.24502 | 6.12246 | 1370 ft | 22 kts | 45° |
| 2026-05-06 16:55 | 46.24599 | 6.12383 | 1370 ft | 21 kts | 44° |
| 2026-05-06 16:56 | 46.24684 | 6.12515 | 1369 ft | 18 kts | 47° |
| 2026-05-06 16:56 | 46.24765 | 6.12633 | 1368 ft | 18 kts | 39° |
| 2026-05-06 16:56 | 46.24840 | 6.12669 | 1368 ft | 10 kts | 14° |
| 2026-05-06 16:56 | 46.24900 | 6.12701 | 1368 ft | 9 kts | 21° |
| 2026-05-06 16:57 | 46.24948 | 6.12718 | 1367 ft | 5 kts | 347° |
| 2026-05-06 16:57 | 46.24974 | 6.12689 | 1367 ft | 4 kts | 315° |
| 2026-05-06 16:57 | 46.24982 | 6.12666 | 1367 ft | 2 kts | 283° |
| 2026-05-06 16:57 | 46.24979 | 6.12636 | 1368 ft | 4 kts | 250° |
| 2026-05-06 16:58 | 46.24956 | 6.12592 | 1368 ft | 14 kts | 228° |
| 2026-05-06 16:58 | 46.24725 | 6.12248 | 1370 ft | 87 kts | 224° |
| 2026-05-06 16:58 | 46.24230 | 6.11530 | 1375 ft | 137 kts | 226° |
| 2026-05-06 16:58 | 46.23559 | 6.10552 | 1543 ft | 162 kts | 225° |
| 2026-05-06 16:59 | 46.22894 | 6.09631 | 2256 ft | 148 kts | 223° |
| 2026-05-06 16:59 | 46.22216 | 6.08722 | 2691 ft | 157 kts | 223° |
| 2026-05-06 16:59 | 46.21461 | 6.07698 | 3188 ft | 170 kts | 225° |
| 2026-05-06 16:59 | 46.20690 | 6.06533 | 3670 ft | 180 kts | 226° |
| 2026-05-06 17:00 | 46.20203 | 6.05778 | 3916 ft | 189 kts | 227° |
| 2026-05-06 17:00 | 46.19376 | 6.04513 | 4303 ft | 203 kts | 226° |
| 2026-05-06 17:00 | 46.18463 | 6.03141 | 4611 ft | 222 kts | 226° |
| 2026-05-06 17:00 | 46.17408 | 6.01582 | 5004 ft | 240 kts | 226° |
| 2026-05-06 17:01 | 46.16287 | 5.99937 | 5440 ft | 256 kts | 225° |
| 2026-05-06 17:01 | 46.15169 | 5.98281 | 5963 ft | 266 kts | 226° |
| 2026-05-06 17:01 | 46.14053 | 5.96616 | 6656 ft | 268 kts | 226° |
| 2026-05-06 17:01 | 46.12814 | 5.94728 | 7455 ft | 270 kts | 231° |
| 2026-05-06 17:02 | 46.12035 | 5.92501 | 8142 ft | 273 kts | 259° |
| 2026-05-06 17:02 | 46.12105 | 5.90012 | 8881 ft | 276 kts | 283° |
| 2026-05-06 17:02 | 46.12846 | 5.87765 | 9583 ft | 281 kts | 304° |
| 2026-05-06 17:02 | 46.14177 | 5.86026 | 10237 ft | 289 kts | 327° |
| 2026-05-06 17:03 | 46.15907 | 5.85135 | 10677 ft | 304 kts | 348° |
| 2026-05-06 17:03 | 46.17829 | 5.84774 | 10993 ft | 319 kts | 351° |
| 2026-05-06 17:03 | 46.20034 | 5.84423 | 11300 ft | 336 kts | 352° |
| 2026-05-06 17:03 | 46.22337 | 5.84032 | 11630 ft | 350 kts | 351° |
| 2026-05-06 17:04 | 46.24697 | 5.83595 | 12241 ft | 356 kts | 351° |
| 2026-05-06 17:04 | 46.27088 | 5.83127 | 13061 ft | 357 kts | 350° |
| 2026-05-06 17:04 | 46.29531 | 5.82634 | 13838 ft | 361 kts | 350° |
| 2026-05-06 17:04 | 46.32021 | 5.82123 | 14497 ft | 366 kts | 350° |
| 2026-05-06 17:05 | 46.34488 | 5.81613 | 15216 ft | 370 kts | 350° |
| 2026-05-06 17:05 | 46.36848 | 5.81125 | 15936 ft | 369 kts | 350° |
| 2026-05-06 17:05 | 46.39269 | 5.80552 | 16491 ft | 371 kts | 346° |
| 2026-05-06 17:05 | 46.41653 | 5.79539 | 17050 ft | 373 kts | 338° |
| 2026-05-06 17:06 | 46.44011 | 5.77981 | 17645 ft | 374 kts | 331° |
| 2026-05-06 17:06 | 46.46291 | 5.76161 | 18223 ft | 376 kts | 330° |
| 2026-05-06 17:06 | 46.48515 | 5.74321 | 18757 ft | 378 kts | 329° |
| 2026-05-06 17:06 | 46.50751 | 5.72478 | 19281 ft | 381 kts | 330° |
| 2026-05-06 17:07 | 46.53032 | 5.70619 | 19788 ft | 384 kts | 330° |
| 2026-05-06 17:07 | 46.55352 | 5.68737 | 20290 ft | 387 kts | 330° |
| 2026-05-06 17:07 | 46.57713 | 5.66823 | 20785 ft | 390 kts | 331° |
| 2026-05-06 17:07 | 46.60063 | 5.64912 | 21311 ft | 392 kts | 331° |
| 2026-05-06 17:08 | 46.62455 | 5.63025 | 21802 ft | 394 kts | 335° |
| 2026-05-06 17:08 | 46.65063 | 5.61991 | 22202 ft | 398 kts | 355° |
| 2026-05-06 17:08 | 46.67830 | 5.62313 | 22694 ft | 400 kts | 14° |
| 2026-05-06 17:08 | 46.70350 | 5.63932 | 23163 ft | 402 kts | 33° |
| 2026-05-06 17:09 | 46.72446 | 5.66520 | 23639 ft | 404 kts | 43° |
| 2026-05-06 17:09 | 46.74474 | 5.69388 | 24094 ft | 406 kts | 44° |
| 2026-05-06 17:09 | 46.76465 | 5.72220 | 24486 ft | 409 kts | 44° |
| 2026-05-06 17:09 | 46.78450 | 5.75012 | 24863 ft | 412 kts | 44° |
| 2026-05-06 17:10 | 46.80498 | 5.77870 | 25211 ft | 415 kts | 44° |
| 2026-05-06 17:10 | 46.82524 | 5.80674 | 25548 ft | 418 kts | 44° |
| 2026-05-06 17:10 | 46.84614 | 5.83560 | 25879 ft | 421 kts | 44° |
| 2026-05-06 17:10 | 46.86752 | 5.86511 | 26202 ft | 424 kts | 44° |
| 2026-05-06 17:11 | 46.88731 | 5.89246 | 26491 ft | 427 kts | 44° |
| 2026-05-06 17:11 | 46.90888 | 5.92228 | 26796 ft | 430 kts | 44° |
| 2026-05-06 17:11 | 46.93065 | 5.95241 | 27102 ft | 433 kts | 44° |
| 2026-05-06 17:11 | 46.95240 | 5.98241 | 27530 ft | 432 kts | 43° |
| 2026-05-06 17:12 | 46.97652 | 6.00801 | 27944 ft | 432 kts | 29° |
| 2026-05-06 17:12 | 47.00426 | 6.02401 | 28340 ft | 433 kts | 14° |
| 2026-05-06 17:12 | 47.03148 | 6.02953 | 28674 ft | 433 kts | 2° |
| 2026-05-06 17:12 | 47.05830 | 6.03023 | 29004 ft | 434 kts | 0° |
| 2026-05-06 17:13 | 47.08541 | 6.03006 | 29290 ft | 437 kts | 360° |
| 2026-05-06 17:13 | 47.11438 | 6.02983 | 29575 ft | 440 kts | 360° |
| 2026-05-06 17:13 | 47.14404 | 6.02984 | 29853 ft | 443 kts | 0° |
| 2026-05-06 17:14 | 47.20456 | 6.03044 | 29927 ft | 443 kts | 1° |
| 2026-05-06 17:14 | 47.26598 | 6.03145 | 29926 ft | 443 kts | 1° |
| 2026-05-06 17:15 | 47.32751 | 6.03251 | 29939 ft | 443 kts | 1° |
| 2026-05-06 17:15 | 47.38882 | 6.03407 | 29934 ft | 444 kts | 2° |
| 2026-05-06 17:16 | 47.44859 | 6.03641 | 29918 ft | 444 kts | 2° |
| 2026-05-06 17:16 | 47.48441 | 6.03782 | 29948 ft | 444 kts | 2° |
| 2026-05-06 17:17 | 47.52988 | 6.03956 | 29910 ft | 444 kts | 2° |
| 2026-05-06 17:17 | 47.57573 | 6.04128 | 29910 ft | 443 kts | 2° |
| 2026-05-06 17:18 | 47.63250 | 6.04339 | 29939 ft | 443 kts | 2° |
| 2026-05-06 17:18 | 47.68850 | 6.04547 | 29922 ft | 443 kts | 3° |
| 2026-05-06 17:19 | 47.74444 | 6.04757 | 29918 ft | 443 kts | 3° |
| 2026-05-06 17:19 | 47.80458 | 6.04985 | 29918 ft | 442 kts | 3° |
| 2026-05-06 17:20 | 47.86485 | 6.05212 | 29916 ft | 441 kts | 3° |
| 2026-05-06 17:20 | 47.92242 | 6.05431 | 29865 ft | 441 kts | 3° |
| 2026-05-06 17:21 | 47.97821 | 6.05643 | 29912 ft | 441 kts | 4° |
| 2026-05-06 17:21 | 48.03397 | 6.05856 | 29876 ft | 440 kts | 3° |
| 2026-05-06 17:22 | 48.09021 | 6.06070 | 29870 ft | 440 kts | 3° |
| 2026-05-06 17:22 | 48.15002 | 6.06302 | 29864 ft | 441 kts | 3° |
| 2026-05-06 17:23 | 48.21050 | 6.06534 | 29860 ft | 441 kts | 3° |
| 2026-05-06 17:23 | 48.27177 | 6.06768 | 29868 ft | 443 kts | 3° |
| 2026-05-06 17:24 | 48.33316 | 6.07001 | 29869 ft | 443 kts | 3° |
| 2026-05-06 17:24 | 48.39343 | 6.07237 | 29869 ft | 443 kts | 3° |
| 2026-05-06 17:25 | 48.45387 | 6.07471 | 29865 ft | 444 kts | 2° |
| 2026-05-06 17:25 | 48.51541 | 6.07713 | 29866 ft | 444 kts | 2° |
| 2026-05-06 17:26 | 48.57555 | 6.07945 | 29873 ft | 444 kts | 2° |
| 2026-05-06 17:26 | 48.63223 | 6.08166 | 29864 ft | 444 kts | 2° |
| 2026-05-06 17:27 | 48.68659 | 6.08379 | 29864 ft | 445 kts | 2° |
| 2026-05-06 17:27 | 48.74154 | 6.08594 | 29864 ft | 445 kts | 2° |
| 2026-05-06 17:28 | 48.79633 | 6.08811 | 29856 ft | 445 kts | 2° |
| 2026-05-06 17:28 | 48.85164 | 6.09027 | 29860 ft | 445 kts | 2° |
| 2026-05-06 17:29 | 48.90859 | 6.09252 | 29857 ft | 444 kts | 1° |
| 2026-05-06 17:29 | 48.96429 | 6.09471 | 29856 ft | 444 kts | 1° |
| 2026-05-06 17:30 | 49.01936 | 6.09689 | 29853 ft | 443 kts | 1° |
| 2026-05-06 17:30 | 49.07487 | 6.09909 | 29854 ft | 443 kts | 1° |
| 2026-05-06 17:31 | 49.13088 | 6.10131 | 29852 ft | 443 kts | 1° |
| 2026-05-06 17:31 | 49.19096 | 6.10371 | 29855 ft | 443 kts | 1° |
| 2026-05-06 17:32 | 49.25120 | 6.10614 | 29853 ft | 443 kts | 1° |
| 2026-05-06 17:32 | 49.31182 | 6.10857 | 29853 ft | 443 kts | 1° |
| 2026-05-06 17:33 | 49.37317 | 6.11104 | 29852 ft | 443 kts | 1° |
| 2026-05-06 17:33 | 49.43406 | 6.11350 | 29849 ft | 443 kts | 1° |
| 2026-05-06 17:34 | 49.49482 | 6.11594 | 29854 ft | 443 kts | 1° |
| 2026-05-06 17:34 | 49.55514 | 6.11820 | 29852 ft | 443 kts | 0° |
| 2026-05-06 17:35 | 49.61596 | 6.12051 | 29854 ft | 442 kts | 0° |
| 2026-05-06 17:35 | 49.67483 | 6.12275 | 29765 ft | 437 kts | 0° |
| 2026-05-06 17:36 | 49.73466 | 6.12508 | 28442 ft | 435 kts | 0° |
| 2026-05-06 17:36 | 49.76480 | 6.12625 | 27726 ft | 434 kts | 0° |
| 2026-05-06 17:36 | 49.79345 | 6.12737 | 26968 ft | 434 kts | 0° |
| 2026-05-06 17:36 | 49.82211 | 6.12846 | 26153 ft | 435 kts | 359° |
| 2026-05-06 17:37 | 49.85059 | 6.12638 | 25405 ft | 432 kts | 352° |
| 2026-05-06 17:37 | 49.87814 | 6.11876 | 25112 ft | 426 kts | 344° |
| 2026-05-06 17:37 | 49.90387 | 6.10677 | 24862 ft | 422 kts | 339° |
| 2026-05-06 17:37 | 49.92926 | 6.09241 | 24610 ft | 418 kts | 337° |
| 2026-05-06 17:38 | 49.95537 | 6.07698 | 24350 ft | 416 kts | 336° |
| 2026-05-06 17:38 | 49.98146 | 6.06164 | 24072 ft | 413 kts | 336° |
| 2026-05-06 17:38 | 50.00726 | 6.04665 | 23772 ft | 411 kts | 337° |
| 2026-05-06 17:38 | 50.03256 | 6.03204 | 23458 ft | 409 kts | 337° |
| 2026-05-06 17:39 | 50.05850 | 6.01711 | 23067 ft | 407 kts | 337° |
| 2026-05-06 17:39 | 50.08408 | 6.00241 | 22619 ft | 404 kts | 337° |
| 2026-05-06 17:39 | 50.10903 | 5.98805 | 22100 ft | 402 kts | 337° |
| 2026-05-06 17:39 | 50.12719 | 5.97759 | 21732 ft | 399 kts | 338° |
| 2026-05-06 17:40 | 50.15083 | 5.96395 | 21263 ft | 395 kts | 338° |
| 2026-05-06 17:40 | 50.17348 | 5.95087 | 20814 ft | 392 kts | 338° |
| 2026-05-06 17:40 | 50.19719 | 5.93716 | 20356 ft | 389 kts | 338° |
| 2026-05-06 17:40 | 50.22047 | 5.92370 | 19903 ft | 386 kts | 338° |
| 2026-05-06 17:41 | 50.24236 | 5.91102 | 19484 ft | 383 kts | 338° |
| 2026-05-06 17:41 | 50.26436 | 5.89827 | 19041 ft | 380 kts | 338° |
| 2026-05-06 17:41 | 50.28614 | 5.88564 | 18617 ft | 377 kts | 338° |
| 2026-05-06 17:41 | 50.30780 | 5.87306 | 18203 ft | 375 kts | 338° |
| 2026-05-06 17:42 | 50.32901 | 5.86073 | 17786 ft | 373 kts | 338° |
| 2026-05-06 17:42 | 50.35067 | 5.84812 | 17362 ft | 370 kts | 339° |
| 2026-05-06 17:42 | 50.37241 | 5.83547 | 16937 ft | 368 kts | 339° |
| 2026-05-06 17:42 | 50.39407 | 5.82285 | 16505 ft | 366 kts | 339° |
| 2026-05-06 17:43 | 50.41573 | 5.81020 | 16076 ft | 363 kts | 339° |
| 2026-05-06 17:43 | 50.43759 | 5.79742 | 15639 ft | 361 kts | 339° |
| 2026-05-06 17:43 | 50.45913 | 5.78482 | 15197 ft | 358 kts | 339° |
| 2026-05-06 17:43 | 50.48067 | 5.77222 | 14780 ft | 356 kts | 339° |
| 2026-05-06 17:44 | 50.50220 | 5.75958 | 14495 ft | 347 kts | 339° |
| 2026-05-06 17:44 | 50.52309 | 5.74734 | 14353 ft | 335 kts | 339° |
| 2026-05-06 17:44 | 50.54311 | 5.73558 | 14203 ft | 323 kts | 340° |
| 2026-05-06 17:44 | 50.56216 | 5.72440 | 14065 ft | 312 kts | 339° |
| 2026-05-06 17:45 | 50.58000 | 5.71052 | 13882 ft | 297 kts | 322° |
| 2026-05-06 17:45 | 50.59273 | 5.68843 | 13576 ft | 294 kts | 302° |
| 2026-05-06 17:45 | 50.60113 | 5.66091 | 13091 ft | 296 kts | 295° |
| 2026-05-06 17:45 | 50.60854 | 5.63346 | 12625 ft | 298 kts | 294° |
| 2026-05-06 17:46 | 50.61609 | 5.60547 | 12159 ft | 300 kts | 295° |
| 2026-05-06 17:46 | 50.62402 | 5.57666 | 11678 ft | 298 kts | 295° |
| 2026-05-06 17:46 | 50.63127 | 5.55074 | 11265 ft | 292 kts | 295° |
| 2026-05-06 17:46 | 50.63861 | 5.52470 | 10850 ft | 286 kts | 296° |
| 2026-05-06 17:47 | 50.64574 | 5.49948 | 10443 ft | 281 kts | 295° |
| 2026-05-06 17:47 | 50.65088 | 5.47327 | 10009 ft | 278 kts | 279° |
| 2026-05-06 17:47 | 50.64989 | 5.44292 | 9597 ft | 279 kts | 259° |
| 2026-05-06 17:47 | 50.64515 | 5.41466 | 9211 ft | 280 kts | 257° |
| 2026-05-06 17:48 | 50.64003 | 5.38678 | 8808 ft | 280 kts | 256° |
| 2026-05-06 17:48 | 50.63519 | 5.36032 | 8424 ft | 281 kts | 257° |
| 2026-05-06 17:48 | 50.63029 | 5.33299 | 8030 ft | 282 kts | 256° |
| 2026-05-06 17:48 | 50.62559 | 5.30641 | 7652 ft | 282 kts | 257° |
| 2026-05-06 17:49 | 50.62091 | 5.27964 | 7262 ft | 283 kts | 257° |
| 2026-05-06 17:49 | 50.61618 | 5.25248 | 6874 ft | 283 kts | 257° |
| 2026-05-06 17:49 | 50.61137 | 5.22478 | 6472 ft | 283 kts | 257° |
| 2026-05-06 17:49 | 50.60637 | 5.19602 | 6069 ft | 283 kts | 257° |
| 2026-05-06 17:50 | 50.60023 | 5.16939 | 5682 ft | 286 kts | 244° |
| 2026-05-06 17:50 | 50.58920 | 5.14585 | 5342 ft | 285 kts | 229° |
| 2026-05-06 17:50 | 50.57584 | 5.12525 | 5003 ft | 278 kts | 221° |
| 2026-05-06 17:50 | 50.56025 | 5.11237 | 4642 ft | 273 kts | 191° |
| 2026-05-06 17:51 | 50.54324 | 5.11323 | 4344 ft | 263 kts | 161° |
| 2026-05-06 17:51 | 50.52860 | 5.12616 | 4052 ft | 249 kts | 134° |
| 2026-05-06 17:51 | 50.51746 | 5.14419 | 3794 ft | 242 kts | 129° |
| 2026-05-06 17:51 | 50.50666 | 5.16264 | 3565 ft | 238 kts | 129° |
| 2026-05-06 17:52 | 50.49762 | 5.18175 | 3301 ft | 232 kts | 108° |
| 2026-05-06 17:52 | 50.49543 | 5.20418 | 3005 ft | 221 kts | 77° |
| 2026-05-06 17:52 | 50.50002 | 5.22331 | 2962 ft | 202 kts | 54° |
| 2026-05-06 17:52 | 50.50732 | 5.23853 | 2960 ft | 195 kts | 44° |
| 2026-05-06 17:53 | 50.51553 | 5.25159 | 2967 ft | 194 kts | 41° |
| 2026-05-06 17:53 | 50.52429 | 5.26472 | 2971 ft | 194 kts | 41° |
| 2026-05-06 17:53 | 50.53278 | 5.27764 | 2988 ft | 191 kts | 42° |
| 2026-05-06 17:53 | 50.54079 | 5.29022 | 3009 ft | 176 kts | 42° |
| 2026-05-06 17:54 | 50.54816 | 5.30195 | 2871 ft | 166 kts | 43° |
| 2026-05-06 17:54 | 50.55510 | 5.31303 | 2711 ft | 152 kts | 43° |
| 2026-05-06 17:54 | 50.56141 | 5.32314 | 2538 ft | 140 kts | 44° |
| 2026-05-06 17:54 | 50.56755 | 5.33298 | 2366 ft | 138 kts | 44° |
| 2026-05-06 17:55 | 50.57362 | 5.34247 | 2186 ft | 136 kts | 43° |
| 2026-05-06 17:55 | 50.57975 | 5.35194 | 2017 ft | 136 kts | 44° |
| 2026-05-06 17:55 | 50.58576 | 5.36139 | 1871 ft | 135 kts | 43° |
| 2026-05-06 17:55 | 50.59174 | 5.37095 | 1747 ft | 135 kts | 44° |
| 2026-05-06 17:56 | 50.59762 | 5.38051 | 1582 ft | 135 kts | 44° |
| 2026-05-06 17:56 | 50.60361 | 5.38975 | 1375 ft | 134 kts | 44° |
| 2026-05-06 17:56 | 50.60945 | 5.39921 | 1206 ft | 134 kts | 47° |
| 2026-05-06 17:56 | 50.61518 | 5.40882 | 1067 ft | 133 kts | 44° |
| 2026-05-06 17:57 | 50.62116 | 5.41820 | 906 ft | 133 kts | 45° |
| 2026-05-06 17:57 | 50.62698 | 5.42751 | 709 ft | 133 kts | 45° |
| 2026-05-06 17:57 | 50.63258 | 5.43639 | 630 ft | 121 kts | 45° |
| 2026-05-06 17:57 | 50.63684 | 5.44314 | 610 ft | 75 kts | 44° |
| 2026-05-06 17:58 | 50.63954 | 5.44735 | 601 ft | 56 kts | 43° |
| 2026-05-06 17:58 | 50.64193 | 5.45104 | 597 ft | 48 kts | 46° |
| 2026-05-06 17:58 | 50.64361 | 5.45381 | 597 ft | 29 kts | 46° |
| 2026-05-06 17:58 | 50.64381 | 5.45611 | 599 ft | 22 kts | 90° |
| 2026-05-06 17:59 | 50.64384 | 5.45782 | 602 ft | 8 kts | 73° |
| 2026-05-06 17:59 | 50.64412 | 5.45847 | 603 ft | 7 kts | 43° |
| 2026-05-06 17:59 | 50.64441 | 5.45895 | 604 ft | 4 kts | 68° |
| 2026-05-06 17:59 | 50.64440 | 5.45935 | 605 ft | 2 kts | 105° |
| 2026-05-06 18:00 | 50.64434 | 5.45951 | 606 ft | 1 kts | 133° |
| 2026-05-06 18:00 | 50.64428 | 5.45959 | 606 ft | 0 kts | 137° |
| 2026-05-06 18:00 | 50.64426 | 5.45962 | 606 ft | 0 kts | 136° |
| 2026-05-06 18:00 | 50.64425 | 5.45963 | 606 ft | 0 kts | 135° |
| 2026-05-06 18:01 | 50.64422 | 5.45969 | 606 ft | 1 kts | 135° |
| 2026-05-06 18:01 | 50.64419 | 5.45972 | 607 ft | 0 kts | 135° |
| 2026-05-06 18:01 | 50.64415 | 5.45978 | 607 ft | 0 kts | 135° |